createdAt,value
2022-08-20T00:00:31.948Z,13.43
2022-08-20T00:03:25.621Z,12.30
2022-08-20T00:06:18.649Z,12.87
2022-08-20T00:09:06.609Z,12.53
2022-08-20T00:11:54.619Z,12.73
2022-08-20T00:14:41.511Z,13.07
2022-08-20T00:17:28.517Z,13.30
2022-08-20T00:20:15.429Z,13.37
2022-08-20T00:23:03.719Z,13.10
2022-08-20T00:25:55.168Z,13.37
2022-08-20T00:28:42.248Z,14.40
2022-08-20T00:31:32.470Z,14.80
2022-08-20T00:34:19.454Z,16.67
2022-08-20T00:37:06.482Z,21.50
2022-08-20T00:39:53.459Z,22.93
2022-08-20T00:42:40.496Z,21.87
2022-08-20T00:45:29.502Z,21.20
2022-08-20T00:48:16.895Z,22.60
2022-08-20T00:51:03.930Z,20.93
2022-08-20T00:53:50.899Z,22.73
2022-08-20T00:56:38.620Z,19.80
2022-08-20T00:59:29.131Z,23.10
2022-08-20T01:02:16.793Z,20.07
2022-08-20T01:05:04.927Z,21.17
2022-08-20T01:07:58.015Z,21.77
2022-08-20T01:10:49.526Z,20.47
2022-08-20T01:13:41.281Z,17.93
2022-08-20T01:16:47.341Z,20.07
2022-08-20T01:19:37.325Z,23.23
2022-08-20T01:22:26.489Z,20.17
2022-08-20T01:25:22.617Z,18.33
2022-08-20T01:28:12.141Z,17.67
2022-08-20T01:30:59.561Z,16.67
2022-08-20T01:33:46.598Z,15.53
2022-08-20T01:36:36.453Z,15.23
2022-08-20T01:39:26.590Z,14.50
2022-08-20T01:42:35.321Z,13.23
2022-08-20T01:45:22.332Z,14.70
2022-08-20T01:47:54.970Z,15.90
2022-08-20T01:50:47.680Z,15.57
2022-08-20T01:53:44.755Z,20.57
2022-08-20T01:56:35.036Z,19.33
2022-08-20T01:59:25.601Z,19.47
2022-08-20T02:02:13.771Z,18.47
2022-08-20T02:05:01.553Z,22.87
2022-08-20T02:07:48.625Z,23.57
2022-08-20T02:10:38.492Z,24.30
2022-08-20T02:13:25.407Z,23.07
2022-08-20T02:16:32.480Z,20.93
2022-08-20T02:19:25.129Z,24.97
2022-08-20T02:22:16.950Z,24.70
2022-08-20T02:25:04.250Z,26.50
2022-08-20T02:27:51.896Z,24.93
2022-08-20T02:30:42.672Z,27.47
2022-08-20T02:33:32.514Z,23.37
2022-08-20T02:36:19.432Z,26.10
2022-08-20T02:39:06.773Z,27.90
2022-08-20T02:41:59.109Z,29.27
2022-08-20T02:44:46.314Z,32.53
2022-08-20T02:47:33.186Z,26.40
2022-08-20T02:50:20.450Z,28.70
2022-08-20T02:53:07.693Z,29.67
2022-08-20T02:55:54.789Z,28.67
2022-08-20T02:58:42.116Z,22.57
2022-08-20T03:01:31.666Z,25.50
2022-08-20T03:04:21.561Z,23.10
2022-08-20T03:07:13.296Z,23.67
2022-08-20T03:10:01.525Z,25.73
2022-08-20T03:12:48.519Z,25.37
2022-08-20T03:15:35.697Z,29.87
2022-08-20T03:18:24.581Z,25.43
2022-08-20T03:21:11.849Z,24.63
2022-08-20T03:24:02.233Z,22.07
2022-08-20T03:26:49.214Z,23.60
2022-08-20T03:29:37.320Z,24.50
2022-08-20T03:32:24.562Z,26.93
2022-08-20T03:35:13.548Z,23.47
2022-08-20T03:38:01.429Z,21.00
2022-08-20T03:40:52.317Z,22.83
2022-08-20T03:43:39.320Z,21.63
2022-08-20T03:46:26.427Z,20.43
2022-08-20T03:49:14.476Z,20.87
2022-08-20T03:52:01.496Z,20.00
2022-08-20T03:54:48.413Z,23.40
2022-08-20T03:57:36.639Z,20.70
2022-08-20T04:00:24.937Z,19.20
2022-08-20T04:03:12.012Z,19.50
2022-08-20T04:06:00.464Z,21.30
2022-08-20T04:08:52.238Z,19.70
2022-08-20T04:11:39.396Z,19.87
2022-08-20T04:14:26.384Z,19.10
2022-08-20T04:17:16.240Z,18.50
2022-08-20T04:20:04.100Z,21.63
2022-08-20T04:22:58.655Z,20.87
2022-08-20T04:25:48.552Z,17.00
2022-08-20T04:28:43.720Z,18.60
2022-08-20T04:31:30.809Z,17.63
2022-08-20T04:34:17.726Z,18.50
2022-08-20T04:37:17.334Z,17.60
2022-08-20T04:40:04.580Z,22.73
2022-08-20T04:42:53.203Z,19.17
2022-08-20T04:45:41.036Z,17.67
2022-08-20T04:48:28.031Z,15.90
2022-08-20T04:51:16.291Z,14.53
2022-08-20T04:54:03.353Z,14.17
2022-08-20T04:56:53.362Z,14.33
2022-08-20T04:59:40.496Z,14.20
2022-08-20T05:02:27.446Z,15.03
2022-08-20T05:05:14.901Z,16.33
2022-08-20T05:08:20.061Z,16.40
2022-08-20T05:11:33.548Z,16.60
2022-08-20T05:14:14.566Z,16.27
2022-08-20T05:17:01.773Z,15.60
2022-08-20T05:19:48.661Z,17.30
2022-08-20T05:22:35.808Z,17.07
2022-08-20T05:25:23.788Z,16.50
2022-08-20T05:28:17.372Z,16.53
2022-08-20T05:31:06.248Z,17.10
2022-08-20T05:33:53.417Z,17.57
2022-08-20T05:36:40.317Z,17.10
2022-08-20T05:39:27.893Z,17.00
2022-08-20T05:42:14.875Z,19.73
2022-08-20T05:45:01.945Z,19.23
2022-08-20T05:47:55.440Z,21.17
2022-08-20T05:50:44.546Z,18.17
2022-08-20T05:53:32.373Z,19.60
2022-08-20T05:56:19.394Z,19.27
2022-08-20T05:59:13.546Z,20.60
2022-08-20T06:02:01.536Z,20.00
2022-08-20T06:04:48.600Z,20.00
2022-08-20T06:07:43.638Z,21.03
2022-08-20T06:10:30.597Z,20.50
2022-08-20T06:13:17.696Z,19.70
2022-08-20T06:16:06.885Z,20.10
2022-08-20T06:18:54.088Z,21.20
2022-08-20T06:21:45.317Z,21.13
2022-08-20T06:24:32.335Z,20.50
2022-08-20T06:27:21.201Z,19.63
2022-08-20T06:30:08.982Z,19.43
2022-08-20T06:32:56.064Z,20.87
2022-08-20T06:35:43.368Z,19.50
2022-08-20T06:38:32.185Z,18.83
2022-08-20T06:41:19.291Z,18.53
2022-08-20T06:44:06.307Z,17.67
2022-08-20T06:46:54.764Z,17.40
2022-08-20T06:49:41.729Z,17.27
2022-08-20T06:52:09.492Z,18.17
2022-08-20T06:54:58.694Z,17.03
2022-08-20T06:57:45.617Z,17.43
2022-08-20T07:00:36.651Z,16.53
2022-08-20T07:03:24.930Z,16.47
2022-08-20T07:06:11.859Z,16.30
2022-08-20T07:09:00.092Z,16.23
2022-08-20T07:11:47.157Z,17.47
2022-08-20T07:14:35.702Z,16.63
2022-08-20T07:17:24.302Z,15.93
2022-08-20T07:20:11.509Z,15.67
2022-08-20T07:22:58.674Z,15.23
2022-08-20T07:25:46.176Z,18.37
2022-08-20T07:28:44.957Z,15.13
2022-08-20T07:31:31.494Z,16.23
2022-08-20T07:34:19.597Z,15.40
2022-08-20T07:37:06.910Z,14.47
2022-08-20T07:39:53.901Z,14.40
2022-08-20T07:42:41.020Z,14.40
2022-08-20T07:45:31.609Z,14.10
2022-08-20T07:48:31.729Z,14.70
2022-08-20T07:51:21.945Z,14.30
2022-08-20T07:54:10.202Z,15.33
2022-08-20T07:56:57.388Z,14.23
2022-08-20T07:59:44.367Z,13.37
2022-08-20T08:02:32.214Z,16.57
2022-08-20T08:05:19.434Z,15.77
2022-08-20T08:08:07.430Z,13.47
2022-08-20T08:10:54.632Z,13.07
2022-08-20T08:13:51.104Z,13.50
2022-08-20T08:16:38.183Z,12.67
2022-08-20T08:19:28.876Z,12.97
2022-08-20T08:22:16.688Z,13.47
2022-08-20T08:25:04.975Z,16.37
2022-08-20T08:27:54.718Z,13.73
2022-08-20T08:30:41.574Z,14.00
2022-08-20T08:33:47.548Z,13.10
2022-08-20T08:36:36.127Z,13.07
2022-08-20T08:39:23.240Z,12.37
2022-08-20T08:42:14.251Z,13.53
2022-08-20T08:45:02.101Z,12.90
2022-08-20T08:47:52.945Z,13.23
2022-08-20T08:50:59.878Z,12.30
2022-08-20T08:53:52.128Z,12.90
2022-08-20T08:56:40.473Z,12.40
2022-08-20T08:59:28.781Z,12.50
2022-08-20T09:02:41.644Z,12.27
2022-08-20T09:05:40.702Z,12.00
2022-08-20T09:08:30.814Z,14.13
2022-08-20T09:11:25.963Z,11.90
2022-08-20T09:14:16.304Z,12.57
2022-08-20T09:17:03.285Z,12.50
2022-08-20T09:19:50.606Z,12.40
2022-08-20T09:22:40.636Z,11.93
2022-08-20T09:25:28.144Z,13.00
2022-08-20T09:28:15.033Z,14.03
2022-08-20T09:31:02.914Z,12.00
2022-08-20T09:33:51.500Z,11.60
2022-08-20T09:36:38.768Z,11.80
2022-08-20T09:39:25.725Z,11.80
2022-08-20T09:42:12.747Z,13.00
2022-08-20T09:45:00.177Z,11.63
2022-08-20T09:47:55.015Z,11.33
2022-08-20T09:50:45.637Z,12.23
2022-08-20T09:53:33.537Z,11.17
2022-08-20T09:56:20.469Z,11.60
2022-08-20T09:59:11.156Z,11.33
2022-08-20T10:01:58.035Z,12.17
2022-08-20T10:04:45.347Z,11.70
2022-08-20T10:07:33.323Z,11.53
2022-08-20T10:10:20.950Z,11.33
2022-08-20T10:12:51.594Z,12.47
2022-08-20T10:15:21.536Z,11.60
2022-08-20T10:17:48.580Z,12.07
2022-08-20T10:20:16.186Z,12.07
2022-08-20T10:22:43.412Z,12.23
2022-08-20T10:25:10.887Z,12.77
2022-08-20T10:27:40.464Z,13.53
2022-08-20T10:30:28.592Z,12.13
2022-08-20T10:33:15.661Z,13.00
2022-08-20T10:36:02.685Z,11.43
2022-08-20T10:38:49.505Z,11.50
2022-08-20T10:41:39.050Z,11.90
2022-08-20T10:44:27.191Z,11.53
2022-08-20T10:47:14.271Z,11.93
2022-08-20T10:50:01.240Z,11.90
2022-08-20T10:52:49.502Z,13.70
2022-08-20T10:55:36.618Z,11.57
2022-08-20T10:58:26.981Z,10.67
2022-08-20T11:01:32.796Z,11.27
2022-08-20T11:04:21.012Z,16.27
2022-08-20T11:07:07.936Z,11.27
2022-08-20T11:09:55.297Z,9.83
2022-08-20T11:12:44.805Z,11.07
2022-08-20T11:15:34.654Z,10.80
2022-08-20T11:18:21.693Z,9.97
2022-08-20T11:21:08.959Z,9.73
2022-08-20T11:23:57.429Z,9.70
2022-08-20T11:26:46.910Z,10.13
2022-08-20T11:29:34.597Z,9.40
2022-08-20T11:32:21.780Z,11.33
2022-08-20T11:35:38.407Z,9.43
2022-08-20T11:38:17.182Z,8.70
2022-08-20T11:41:04.665Z,9.77
2022-08-20T11:44:17.486Z,10.37
2022-08-20T11:46:58.870Z,9.13
2022-08-20T11:49:46.010Z,8.67
2022-08-20T11:52:33.145Z,10.37
2022-08-20T11:55:21.073Z,8.87
2022-08-20T11:58:16.924Z,10.97
2022-08-20T12:01:04.121Z,7.83
2022-08-20T12:03:51.087Z,7.87
2022-08-20T12:06:38.123Z,8.20
2022-08-20T12:09:25.073Z,9.57
2022-08-20T12:12:12.264Z,7.80
2022-08-20T12:15:01.230Z,7.67
2022-08-20T12:17:51.072Z,9.57
2022-08-20T12:20:38.025Z,8.13
2022-08-20T12:23:25.392Z,7.93
2022-08-20T12:26:12.301Z,7.77
2022-08-20T12:28:59.412Z,7.60
2022-08-20T12:31:46.266Z,9.50
2022-08-20T12:34:33.244Z,8.20
2022-08-20T12:37:25.888Z,9.30
2022-08-20T12:40:15.627Z,8.77
2022-08-20T12:43:02.646Z,7.57
2022-08-20T12:45:51.153Z,8.57
2022-08-20T12:48:38.188Z,9.00
2022-08-20T12:51:25.261Z,6.93
2022-08-20T12:54:12.113Z,7.30
2022-08-20T12:56:59.300Z,9.13
2022-08-20T12:59:47.429Z,8.70
2022-08-20T13:02:34.496Z,8.33
2022-08-20T13:05:21.603Z,7.03
2022-08-20T13:08:09.500Z,7.23
2022-08-20T13:11:03.806Z,7.83
2022-08-20T13:13:52.124Z,6.47
2022-08-20T13:16:39.356Z,6.13
2022-08-20T13:19:26.401Z,6.97
2022-08-20T13:22:14.475Z,7.03
2022-08-20T13:25:02.376Z,6.87
2022-08-20T13:27:49.514Z,7.27
2022-08-20T13:30:39.713Z,6.93
2022-08-20T13:33:26.761Z,6.80
2022-08-20T13:36:13.992Z,6.67
2022-08-20T13:39:00.853Z,7.27
2022-08-20T13:41:27.993Z,6.90
2022-08-20T13:44:14.973Z,6.70
2022-08-20T13:47:02.350Z,8.27
2022-08-20T13:49:49.340Z,6.93
2022-08-20T13:52:36.337Z,6.97
2022-08-20T13:55:25.702Z,7.03
2022-08-20T13:58:13.450Z,7.97
2022-08-20T14:01:00.607Z,7.73
2022-08-20T14:03:47.689Z,6.07
2022-08-20T14:06:34.541Z,7.20
2022-08-20T14:09:21.738Z,6.70
2022-08-20T14:12:08.807Z,6.70
2022-08-20T14:14:56.016Z,6.17
2022-08-20T14:17:44.905Z,7.50
2022-08-20T14:20:38.656Z,6.77
2022-08-20T14:23:26.053Z,7.00
2022-08-20T14:26:13.193Z,6.40
2022-08-20T14:29:00.176Z,6.67
2022-08-20T14:31:47.306Z,6.03
2022-08-20T14:34:34.245Z,9.33
2022-08-20T14:37:33.246Z,9.27
2022-08-20T14:40:22.570Z,7.57
2022-08-20T14:43:10.201Z,7.50
2022-08-20T14:45:57.247Z,6.20
2022-08-20T14:48:44.307Z,6.37
2022-08-20T14:51:31.221Z,7.43
2022-08-20T14:54:18.209Z,7.33
2022-08-20T14:57:05.116Z,6.93
2022-08-20T15:00:00.606Z,5.77
2022-08-20T15:02:47.741Z,5.90
2022-08-20T15:05:39.258Z,8.60
2022-08-20T15:08:28.784Z,9.10
2022-08-20T15:11:16.080Z,5.57
2022-08-20T15:14:03.084Z,6.87
2022-08-20T15:16:50.314Z,6.23
2022-08-20T15:19:37.185Z,6.13
2022-08-20T15:22:24.412Z,6.27
2022-08-20T15:25:11.445Z,5.60
2022-08-20T15:28:00.724Z,6.03
2022-08-20T15:30:50.268Z,5.47
2022-08-20T15:33:37.344Z,5.80
2022-08-20T15:36:26.829Z,6.57
2022-08-20T15:39:13.937Z,6.10
2022-08-20T15:42:00.804Z,5.50
2022-08-20T15:44:47.899Z,5.17
2022-08-20T15:47:41.325Z,6.37
2022-08-20T15:50:38.364Z,4.90
2022-08-20T15:53:31.979Z,8.40
2022-08-20T15:56:43.937Z,5.40
2022-08-20T15:59:45.691Z,5.97
2022-08-20T16:03:10.295Z,6.60
2022-08-20T16:06:04.510Z,7.83
2022-08-20T16:09:11.446Z,8.63
2022-08-20T16:12:11.583Z,7.83
2022-08-20T16:15:01.872Z,8.13
2022-08-20T16:18:00.860Z,7.83
2022-08-20T16:21:03.921Z,6.67
2022-08-20T16:23:58.195Z,5.60
2022-08-20T16:27:17.746Z,5.37
2022-08-20T16:30:20.794Z,5.50
2022-08-20T16:33:20.050Z,5.33
2022-08-20T16:36:14.284Z,6.30
2022-08-20T16:39:33.428Z,7.50
2022-08-20T16:42:23.742Z,7.43
2022-08-20T16:45:14.733Z,6.60
